Time;durP1;ratioP1;P1;durP2;ratioP2;P2;SDS_P1;SDS_P2;PMS_P1;PMS_P2;Temp;Humidity;BMP_temperature;BMP_pressure;BME280_temperature;BME280_humidity;BME280_pressure;Samples;Min_cycle;Max_cycle;Signal;HPM_P1;HPM_P2
2023/11/08 00:01:08;;;;;;;1.70;1.48;;;7.60;92.40;;;;;;5117550;27;20196;-88
2023/11/08 00:03:36;;;;;;;2.42;1.23;;;7.50;92.10;;;;;;5108867;28;20202;-88
2023/11/08 00:06:03;;;;;;;4.45;1.80;;;7.40;92.40;;;;;;5112821;27;20210;-88
2023/11/08 00:08:30;;;;;;;1.95;1.40;;;7.30;92.90;;;;;;5113209;27;20891;-88
2023/11/08 00:10:57;;;;;;;1.88;1.50;;;7.20;93.00;;;;;;5119383;27;20225;-88
2023/11/08 00:13:24;;;;;;;5.18;1.73;;;7.10;93.30;;;;;;5111823;27;20196;-88
2023/11/08 00:15:51;;;;;;;2.47;1.40;;;7.10;93.50;;;;;;5112593;27;20203;-88
2023/11/08 00:18:18;;;;;;;2.58;1.52;;;7.00;93.60;;;;;;5105905;27;20211;-88
2023/11/08 00:20:46;;;;;;;2.33;1.35;;;7.00;94.00;;;;;;5104179;28;20214;-88
2023/11/08 00:23:12;;;;;;;3.33;1.50;;;7.00;93.90;;;;;;5114007;27;20192;-87
2023/11/08 00:25:38;;;;;;;1.58;1.40;;;6.90;93.90;;;;;;5111044;27;20196;-86
2023/11/08 00:28:05;;;;;;;2.45;1.60;;;6.90;94.30;;;;;;5109600;27;20684;-89
2023/11/08 00:30:32;;;;;;;2.22;1.50;;;6.80;94.50;;;;;;5108494;27;20200;-88
2023/11/08 00:32:59;;;;;;;4.60;1.60;;;6.80;94.40;;;;;;5104426;28;20196;-87
2023/11/08 00:35:26;;;;;;;2.85;1.65;;;6.80;94.30;;;;;;5111483;27;20823;-88
2023/11/08 00:37:54;;;;;;;1.52;1.35;;;6.80;94.30;;;;;;5111293;27;20656;-87
2023/11/08 00:40:21;;;;;;;1.77;1.50;;;6.80;94.40;;;;;;5120404;27;20206;-88
2023/11/08 00:42:48;;;;;;;3.50;1.45;;;6.60;94.70;;;;;;5120338;27;20218;-88
2023/11/08 00:45:15;;;;;;;2.87;1.60;;;6.60;95.00;;;;;;5103123;27;20204;-88
2023/11/08 00:47:43;;;;;;;3.00;1.80;;;6.60;95.00;;;;;;5104940;28;20198;-87
2023/11/08 00:50:10;;;;;;;3.00;1.50;;;6.60;94.80;;;;;;5113833;27;20241;-88
2023/11/08 00:52:38;;;;;;;3.88;1.45;;;6.50;95.10;;;;;;5114737;27;20779;-88
2023/11/08 00:55:08;;;;;;;3.43;1.70;;;6.50;95.40;;;;;;5114525;27;20212;-87
2023/11/08 00:57:36;;;;;;;2.13;1.60;;;6.50;95.40;;;;;;5108701;27;20626;-88
2023/11/08 01:00:07;;;;;;;2.17;1.20;;;6.40;95.40;;;;;;5101052;27;20204;-88
2023/11/08 01:02:34;;;;;;;2.17;1.40;;;6.40;95.40;;;;;;5117509;27;20608;-89
2023/11/08 01:05:01;;;;;;;2.20;1.50;;;6.40;95.40;;;;;;5119333;27;20203;-88
2023/11/08 01:07:27;;;;;;;6.50;1.50;;;6.40;95.40;;;;;;5114585;27;20192;-88
2023/11/08 01:09:54;;;;;;;4.40;1.37;;;6.30;95.40;;;;;;5108033;27;20563;-88
2023/11/08 01:12:23;;;;;;;1.97;1.47;;;6.30;95.70;;;;;;5113634;27;20311;-87
2023/11/08 01:14:51;;;;;;;2.37;1.10;;;6.30;95.40;;;;;;5102267;28;20191;-88
2023/11/08 01:17:17;;;;;;;3.75;1.40;;;6.30;95.40;;;;;;5111381;27;20204;-88
2023/11/08 01:19:44;;;;;;;2.03;1.20;;;6.30;95.30;;;;;;5109998;27;20256;-88
2023/11/08 01:22:12;;;;;;;2.37;1.90;;;6.30;95.40;;;;;;5110019;27;20260;-88
2023/11/08 01:24:41;;;;;;;3.43;1.30;;;6.40;95.30;;;;;;5114700;27;20195;-88
2023/11/08 01:27:08;;;;;;;3.88;1.50;;;6.30;95.40;;;;;;5110281;27;20224;-85
2023/11/08 01:29:36;;;;;;;2.30;1.30;;;6.30;95.30;;;;;;5102333;28;20649;-88
2023/11/08 01:32:03;;;;;;;2.87;1.50;;;6.20;95.30;;;;;;5106139;28;20246;-88
2023/11/08 01:34:30;;;;;;;2.57;1.10;;;6.30;95.40;;;;;;5108960;27;20199;-87
2023/11/08 01:36:57;;;;;;;3.13;1.27;;;6.30;95.40;;;;;;5110156;27;20219;-89
2023/11/08 01:39:24;;;;;;;2.40;1.20;;;6.30;95.40;;;;;;5107708;27;20199;-88
2023/11/08 01:41:53;;;;;;;2.70;1.30;;;6.40;95.60;;;;;;5114810;27;20569;-88
2023/11/08 01:44:22;;;;;;;2.60;1.40;;;6.40;95.40;;;;;;5114708;27;20195;-87
2023/11/08 01:46:53;;;;;;;6.27;1.57;;;6.50;95.40;;;;;;5119489;27;20196;-88
2023/11/08 01:49:21;;;;;;;1.57;1.40;;;6.50;94.70;;;;;;5115388;27;20286;-87
2023/11/08 01:51:49;;;;;;;2.23;1.27;;;6.50;94.20;;;;;;5111896;28;20219;-88
2023/11/08 01:54:19;;;;;;;3.37;1.60;;;6.60;94.10;;;;;;5105150;27;20197;-88
2023/11/08 01:56:46;;;;;;;3.73;1.50;;;6.50;94.20;;;;;;5108004;27;20207;-88
2023/11/08 01:59:15;;;;;;;2.83;1.30;;;6.40;94.50;;;;;;5106301;27;20203;-86
2023/11/08 02:01:42;;;;;;;2.50;1.20;;;6.30;94.70;;;;;;5118873;27;20559;-88
2023/11/08 02:04:11;;;;;;;1.53;1.10;;;6.20;94.70;;;;;;5118570;27;20203;-88
2023/11/08 02:06:39;;;;;;;5.33;1.20;;;6.20;94.50;;;;;;5118312;27;20195;-88
2023/11/08 02:09:08;;;;;;;2.20;1.20;;;6.20;94.60;;;;;;5112937;27;20295;-87
2023/11/08 02:11:35;;;;;;;2.40;1.20;;;6.10;95.30;;;;;;5116968;27;20230;-89
2023/11/08 02:14:04;;;;;;;3.47;1.30;;;6.10;95.20;;;;;;5113414;27;20202;-86
2023/11/08 02:16:32;;;;;;;1.60;1.03;;;6.00;95.00;;;;;;5113166;27;21566;-87
2023/11/08 02:18:59;;;;;;;2.97;1.60;;;6.10;94.50;;;;;;5111453;28;20188;-87
2023/11/08 02:21:27;;;;;;;2.03;1.27;;;6.10;94.80;;;;;;5129790;27;20192;-86
2023/11/08 02:23:55;;;;;;;2.00;1.27;;;6.00;94.60;;;;;;5123894;28;20219;-85
2023/11/08 02:26:23;;;;;;;2.00;1.03;;;5.90;94.70;;;;;;5129828;27;20203;-88
2023/11/08 02:28:50;;;;;;;3.03;1.10;;;5.90;95.20;;;;;;5112687;27;20191;-87
2023/11/08 02:31:18;;;;;;;2.50;1.17;;;5.90;95.00;;;;;;5105790;27;20228;-88
2023/11/08 02:33:44;;;;;;;2.60;1.30;;;5.90;95.30;;;;;;5113718;27;20207;-88
2023/11/08 02:36:14;;;;;;;1.17;1.07;;;5.90;95.10;;;;;;5112758;27;20207;-88
2023/11/08 02:38:40;;;;;;;3.10;1.03;;;5.90;94.80;;;;;;5109899;27;20969;-87
2023/11/08 02:41:08;;;;;;;2.00;1.20;;;5.80;95.50;;;;;;5112117;27;20210;-88
2023/11/08 02:43:37;;;;;;;3.10;1.33;;;5.90;95.00;;;;;;5114863;27;20563;-87
2023/11/08 02:46:04;;;;;;;3.23;1.20;;;5.90;94.40;;;;;;5111551;28;20202;-88
2023/11/08 02:48:32;;;;;;;2.43;1.10;;;5.90;94.50;;;;;;5120923;27;20199;-88
2023/11/08 02:50:59;;;;;;;2.57;1.17;;;5.90;94.50;;;;;;5124487;27;20222;-87
2023/11/08 02:53:26;;;;;;;1.63;1.00;;;5.90;95.30;;;;;;5108680;28;20699;-88
2023/11/08 02:55:52;;;;;;;2.07;1.33;;;5.80;95.20;;;;;;5113300;28;20223;-87
2023/11/08 02:58:19;;;;;;;3.40;1.30;;;5.80;95.20;;;;;;5108653;28;20640;-88
2023/11/08 03:00:49;;;;;;;1.60;1.10;;;5.80;95.20;;;;;;5105911;28;20196;-88
2023/11/08 03:03:16;;;;;;;4.90;1.10;;;5.80;95.20;;;;;;5111518;28;20228;-88
2023/11/08 03:05:43;;;;;;;2.13;1.13;;;5.80;95.20;;;;;;5108810;28;20574;-88
2023/11/08 03:08:10;;;;;;;1.83;1.13;;;5.80;95.20;;;;;;5107492;28;20592;-88
2023/11/08 03:10:36;;;;;;;1.00;0.90;;;5.80;95.20;;;;;;5118796;28;20671;-88
2023/11/08 03:13:04;;;;;;;2.90;1.17;;;5.80;95.20;;;;;;5114137;28;20216;-86
2023/11/08 03:15:32;;;;;;;5.07;1.20;;;5.90;95.90;;;;;;5103971;27;20216;-88
2023/11/08 03:18:01;;;;;;;3.27;1.10;;;5.90;95.40;;;;;;5109791;27;20204;-88
2023/11/08 03:20:27;;;;;;;2.93;1.27;;;6.00;95.30;;;;;;5110567;28;20227;-89
2023/11/08 03:22:56;;;;;;;2.63;1.00;;;6.00;95.30;;;;;;5112442;27;20290;-87
2023/11/08 03:25:23;;;;;;;2.37;1.30;;;6.00;95.30;;;;;;5110187;27;20223;-87
2023/11/08 03:27:50;;;;;;;4.43;1.30;;;6.00;95.10;;;;;;5114882;27;20295;-87
2023/11/08 03:30:17;;;;;;;3.57;1.00;;;6.00;95.30;;;;;;5113938;28;20562;-88
2023/11/08 03:32:45;;;;;;;2.23;1.30;;;6.00;95.30;;;;;;5118237;27;20226;-86
2023/11/08 03:35:15;;;;;;;1.87;1.00;;;6.00;95.30;;;;;;5117076;27;20200;-87
2023/11/08 03:37:44;;;;;;;4.53;1.20;;;6.00;95.30;;;;;;5114609;27;20249;-88
2023/11/08 03:40:15;;;;;;;2.60;1.10;;;6.00;95.30;;;;;;5106915;27;20833;-88
2023/11/08 03:42:42;;;;;;;1.77;1.10;;;6.00;95.30;;;;;;5103550;27;20242;-88
2023/11/08 03:45:10;;;;;;;2.77;1.10;;;6.00;95.30;;;;;;5108181;27;20192;-87
2023/11/08 03:47:38;;;;;;;3.05;1.20;;;5.90;95.30;;;;;;5114794;27;20702;-87
2023/11/08 03:50:07;;;;;;;2.03;1.13;;;5.80;95.20;;;;;;5114638;27;20239;-88
2023/11/08 03:52:35;;;;;;;2.23;1.03;;;5.80;95.20;;;;;;5118239;27;20222;-88
2023/11/08 03:55:02;;;;;;;2.93;1.00;;;5.80;95.20;;;;;;5110766;27;20196;-87
2023/11/08 03:57:29;;;;;;;4.03;1.17;;;5.80;95.20;;;;;;5115573;27;20664;-88
2023/11/08 03:59:57;;;;;;;2.80;1.00;;;5.70;95.20;;;;;;5116353;27;20199;-87
2023/11/08 04:02:25;;;;;;;2.03;1.10;;;5.70;95.90;;;;;;5114545;27;20298;-87
2023/11/08 04:04:52;;;;;;;1.47;1.00;;;5.70;95.80;;;;;;5109195;27;20560;-88
2023/11/08 04:07:19;;;;;;;1.30;1.10;;;5.60;95.80;;;;;;5112699;27;20211;-87
2023/11/08 04:09:47;;;;;;;5.47;1.13;;;5.50;95.90;;;;;;5119110;27;20196;-88
2023/11/08 04:12:14;;;;;;;2.00;1.07;;;5.50;95.80;;;;;;5124905;27;20311;-88
2023/11/08 04:14:42;;;;;;;1.97;1.00;;;5.40;95.90;;;;;;5118644;27;20696;-88
2023/11/08 04:17:09;;;;;;;3.37;1.17;;;5.30;96.10;;;;;;5112289;27;20206;-88
2023/11/08 04:19:36;;;;;;;2.57;1.27;;;5.30;96.20;;;;;;5118448;27;20198;-87
2023/11/08 04:22:03;;;;;;;3.07;1.23;;;5.20;96.60;;;;;;5111115;27;20646;-88
2023/11/08 04:24:30;;;;;;;1.13;0.90;;;5.20;96.80;;;;;;5103994;28;20203;-88
2023/11/08 04:26:59;;;;;;;5.47;1.20;;;5.10;96.80;;;;;;5109264;27;20291;-88
2023/11/08 04:29:26;;;;;;;2.83;0.93;;;5.10;97.10;;;;;;5106515;28;20208;-87
2023/11/08 04:31:53;;;;;;;3.83;1.50;;;5.00;97.00;;;;;;5115517;27;20293;-87
2023/11/08 04:34:20;;;;;;;2.53;1.20;;;5.00;97.30;;;;;;5107175;27;20583;-84
2023/11/08 04:36:47;;;;;;;1.77;1.10;;;5.00;97.40;;;;;;5112893;27;20207;-88
2023/11/08 04:39:16;;;;;;;1.57;1.40;;;5.00;97.40;;;;;;5102737;27;20211;-85
2023/11/08 04:41:44;;;;;;;2.73;1.10;;;5.00;97.20;;;;;;5118915;27;20192;-87
2023/11/08 04:44:13;;;;;;;1.37;1.20;;;5.00;97.20;;;;;;5109613;27;20659;-87
2023/11/08 04:46:41;;;;;;;2.30;1.30;;;5.10;97.10;;;;;;5116916;27;20236;-85
2023/11/08 04:49:12;;;;;;;2.37;1.20;;;5.00;97.00;;;;;;5110165;27;20207;-85
2023/11/08 04:51:38;;;;;;;1.73;1.00;;;5.00;97.10;;;;;;5114688;27;20684;-85
2023/11/08 04:54:05;;;;;;;2.47;1.30;;;5.00;97.10;;;;;;5118892;27;20272;-85
2023/11/08 04:56:34;;;;;;;3.13;1.37;;;5.10;97.20;;;;;;5118042;27;20204;-87
2023/11/08 04:59:03;;;;;;;2.83;1.20;;;5.20;97.20;;;;;;5108614;27;20207;-88
2023/11/08 05:01:31;;;;;;;3.10;1.20;;;5.20;97.00;;;;;;5113665;27;20197;-88
2023/11/08 05:03:59;;;;;;;1.83;1.00;;;5.30;96.70;;;;;;5105070;28;20204;-87
2023/11/08 05:06:26;;;;;;;1.83;1.10;;;5.40;96.10;;;;;;5103213;28;20199;-87
2023/11/08 05:08:53;;;;;;;2.23;1.40;;;5.40;95.70;;;;;;5112036;27;20195;-88
2023/11/08 05:11:20;;;;;;;3.00;1.00;;;5.50;95.60;;;;;;5108651;28;20200;-88
2023/11/08 05:13:47;;;;;;;3.33;1.13;;;5.50;95.20;;;;;;5112172;27;20215;-88
2023/11/08 05:16:14;;;;;;;1.73;0.90;;;5.50;95.20;;;;;;5103430;28;20199;-88
2023/11/08 05:18:42;;;;;;;1.83;1.23;;;5.60;95.20;;;;;;5105450;27;20969;-87
2023/11/08 05:21:13;;;;;;;2.57;1.20;;;5.60;95.20;;;;;;5115310;27;20556;-87
2023/11/08 05:23:40;;;;;;;1.83;1.17;;;5.50;95.20;;;;;;5116098;27;20191;-87
2023/11/08 05:26:07;;;;;;;1.73;1.17;;;5.50;95.20;;;;;;5112293;27;20200;-87
2023/11/08 05:28:34;;;;;;;2.00;1.23;;;5.60;95.20;;;;;;5113569;27;20198;-88
2023/11/08 05:31:01;;;;;;;4.87;1.07;;;5.50;95.40;;;;;;5110316;28;20208;-92
2023/11/08 05:33:28;;;;;;;1.13;1.00;;;5.50;95.20;;;;;;5123557;27;20212;-87
2023/11/08 05:35:56;;;;;;;2.53;0.93;;;5.40;95.60;;;;;;5135108;27;20183;-90
2023/11/08 05:38:23;;;;;;;1.23;1.00;;;5.40;95.20;;;;;;5133544;27;20173;-87
2023/11/08 05:40:50;;;;;;;2.60;1.20;;;5.40;95.10;;;;;;5123094;28;20677;-91
2023/11/08 05:43:17;;;;;;;3.13;1.43;;;5.40;95.20;;;;;;5112579;27;20198;-92
2023/11/08 05:45:43;;;;;;;4.70;1.13;;;5.40;95.10;;;;;;5110500;28;20191;-92
2023/11/08 05:48:10;;;;;;;2.57;1.30;;;5.50;95.20;;;;;;5107904;27;20211;-89
2023/11/08 05:50:37;;;;;;;2.13;1.20;;;5.50;94.50;;;;;;5108985;28;20202;-86
2023/11/08 05:53:05;;;;;;;1.73;1.20;;;5.50;94.80;;;;;;5108266;28;20216;-87
2023/11/08 05:55:32;;;;;;;3.97;0.90;;;5.60;94.60;;;;;;5108313;28;20214;-87
2023/11/08 05:57:59;;;;;;;3.23;1.30;;;5.60;94.40;;;;;;5101003;27;20200;-86
2023/11/08 06:00:26;;;;;;;4.53;1.50;;;5.60;94.20;;;;;;5108597;27;20546;-86
2023/11/08 06:02:54;;;;;;;2.07;1.03;;;5.60;94.00;;;;;;5105299;27;20207;-87
2023/11/08 06:05:22;;;;;;;4.83;1.30;;;5.60;94.10;;;;;;5099609;27;20684;-86
2023/11/08 06:07:49;;;;;;;2.90;1.23;;;5.60;94.20;;;;;;5116196;27;20615;-86
2023/11/08 06:10:17;;;;;;;2.07;1.40;;;5.60;94.20;;;;;;5107226;27;20200;-87
2023/11/08 06:12:45;;;;;;;2.90;1.00;;;5.60;94.10;;;;;;5107587;27;20226;-86
2023/11/08 06:15:12;;;;;;;2.90;1.40;;;5.60;94.20;;;;;;5104333;27;20196;-87
2023/11/08 06:17:39;;;;;;;4.10;1.50;;;5.80;93.40;;;;;;5109571;27;20196;-86
2023/11/08 06:20:08;;;;;;;4.30;1.27;;;5.80;93.60;;;;;;5113607;27;20188;-86
2023/11/08 06:22:35;;;;;;;2.20;1.27;;;5.80;93.50;;;;;;5108005;27;20196;-85
2023/11/08 06:25:02;;;;;;;6.75;1.50;;;5.80;93.70;;;;;;5110643;27;20200;-85
2023/11/08 06:27:30;;;;;;;3.70;1.20;;;5.80;93.30;;;;;;5108263;27;20196;-85
2023/11/08 06:29:57;;;;;;;1.67;1.10;;;5.80;93.40;;;;;;5110818;27;20207;-84
2023/11/08 06:32:24;;;;;;;4.15;1.42;;;5.80;93.80;;;;;;5109029;27;20567;-85
2023/11/08 06:34:51;;;;;;;2.70;1.30;;;5.90;92.80;;;;;;5113319;27;20223;-85
2023/11/08 06:37:18;;;;;;;3.73;1.30;;;6.00;92.40;;;;;;5105591;27;20204;-86
2023/11/08 06:39:45;;;;;;;2.30;1.15;;;6.00;92.20;;;;;;5104225;28;20204;-87
2023/11/08 06:42:11;;;;;;;5.28;1.73;;;6.10;92.60;;;;;;5107684;27;20199;-88
2023/11/08 06:44:40;;;;;;;3.25;1.40;;;6.10;92.10;;;;;;5114422;27;20269;-88
2023/11/08 06:47:07;;;;;;;2.42;1.17;;;6.20;91.80;;;;;;5113264;27;20196;-86
2023/11/08 06:49:36;;;;;;;4.43;1.20;;;6.30;91.70;;;;;;5110671;28;20199;-87
2023/11/08 06:52:04;;;;;;;1.38;1.23;;;6.30;91.00;;;;;;5108170;28;20258;-86
2023/11/08 06:54:31;;;;;;;4.13;1.20;;;6.40;91.70;;;;;;5112931;28;20223;-87
2023/11/08 06:56:58;;;;;;;5.03;1.48;;;6.50;91.70;;;;;;5110361;27;20250;-87
2023/11/08 06:59:25;;;;;;;2.80;1.10;;;6.50;91.10;;;;;;5109349;28;20202;-86
2023/11/08 07:01:54;;;;;;;2.22;1.10;;;6.60;91.10;;;;;;5108954;28;20200;-86
2023/11/08 07:04:21;;;;;;;1.25;1.05;;;6.60;91.10;;;;;;5109323;28;20671;-87
2023/11/08 07:06:49;;;;;;;2.05;1.10;;;6.60;90.60;;;;;;5103309;28;20246;-87
2023/11/08 07:09:17;;;;;;;5.45;1.30;;;6.70;90.00;;;;;;5099820;28;20559;-86
2023/11/08 07:11:44;;;;;;;2.75;1.20;;;6.70;90.10;;;;;;5099176;28;20195;-86
2023/11/08 07:14:13;;;;;;;2.58;1.20;;;6.80;90.00;;;;;;5111303;27;20257;-87
2023/11/08 07:16:40;;;;;;;3.13;1.10;;;6.80;90.00;;;;;;5115017;28;20208;-86
2023/11/08 07:19:08;;;;;;;3.08;1.20;;;6.80;89.00;;;;;;5105402;28;20200;-86
2023/11/08 07:21:35;;;;;;;1.15;1.00;;;6.90;90.30;;;;;;5114733;27;20200;-87
2023/11/08 07:24:02;;;;;;;1.80;1.15;;;7.00;88.50;;;;;;5105812;27;20200;-86
2023/11/08 07:26:29;;;;;;;2.28;1.20;;;7.00;88.70;;;;;;5099092;28;20196;-86
2023/11/08 07:28:58;;;;;;;2.33;1.05;;;7.10;90.10;;;;;;5105846;28;20282;-86
2023/11/08 07:31:25;;;;;;;2.35;1.30;;;7.10;90.10;;;;;;5109250;28;20207;-87
2023/11/08 07:33:52;;;;;;;3.78;1.40;;;7.20;90.00;;;;;;5113600;27;20315;-87
2023/11/08 07:36:23;;;;;;;2.13;1.20;;;7.20;88.60;;;;;;5109338;27;20571;-87
2023/11/08 07:38:50;;;;;;;2.55;1.20;;;7.20;89.80;;;;;;5105360;28;20261;-86
2023/11/08 07:41:17;;;;;;;2.67;1.30;;;7.20;87.40;;;;;;5103324;28;20192;-86
2023/11/08 07:43:44;;;;;;;1.92;1.13;;;7.30;88.00;;;;;;5107411;28;20196;-86
2023/11/08 07:46:11;;;;;;;1.77;1.13;;;7.40;85.40;;;;;;5114066;28;20191;-86
2023/11/08 07:48:38;;;;;;;1.60;1.20;;;7.40;85.60;;;;;;5106422;28;20208;-86
2023/11/08 07:51:08;;;;;;;2.95;1.40;;;7.40;87.10;;;;;;5102294;28;20327;-86
2023/11/08 07:53:36;;;;;;;2.42;1.40;;;7.60;83.40;;;;;;5108160;28;20220;-86
2023/11/08 07:56:04;;;;;;;1.45;1.17;;;7.70;84.00;;;;;;5106324;28;20215;-87
2023/11/08 07:58:32;;;;;;;1.75;1.30;;;7.80;85.60;;;;;;5107211;28;20624;-86
2023/11/08 08:00:59;;;;;;;3.95;1.35;;;7.90;84.60;;;;;;5117175;27;20199;-87
2023/11/08 08:03:25;;;;;;;3.78;1.63;;;8.00;79.40;;;;;;5113204;27;20666;-87
2023/11/08 08:05:53;;;;;;;2.28;1.20;;;8.20;74.90;;;;;;5114560;27;20210;-86
2023/11/08 08:08:20;;;;;;;5.35;1.25;;;8.30;73.20;;;;;;5113118;27;20199;-86
2023/11/08 08:10:50;;;;;;;3.80;1.30;;;8.50;73.40;;;;;;5108158;27;20203;-87
2023/11/08 08:13:18;;;;;;;2.88;1.30;;;8.40;75.60;;;;;;5113898;27;20242;-87
2023/11/08 08:15:45;;;;;;;1.92;1.00;;;8.40;77.00;;;;;;5115725;27;20204;-87
2023/11/08 08:18:12;;;;;;;3.60;1.45;;;8.50;73.30;;;;;;5116002;27;20203;-86
2023/11/08 08:20:39;;;;;;;2.70;1.30;;;8.50;73.40;;;;;;5113696;27;20253;-87
2023/11/08 08:23:09;;;;;;;2.15;1.30;;;8.40;73.50;;;;;;5109140;27;20196;-86
2023/11/08 08:25:38;;;;;;;1.90;1.38;;;8.60;69.30;;;;;;5109028;28;20290;-87
2023/11/08 08:28:06;;;;;;;5.15;1.52;;;8.70;67.90;;;;;;5106318;28;20234;-87
2023/11/08 08:30:34;;;;;;;2.75;1.52;;;8.80;64.60;;;;;;5108904;27;20283;-87
2023/11/08 08:33:02;;;;;;;2.38;1.50;;;8.80;63.60;;;;;;5108904;28;20212;-87
2023/11/08 08:35:29;;;;;;;5.28;1.48;;;8.80;66.20;;;;;;5108674;27;20222;-86
2023/11/08 08:37:56;;;;;;;2.05;1.45;;;8.80;67.00;;;;;;5110253;27;20239;-87
2023/11/08 08:40:23;;;;;;;3.30;1.40;;;8.80;64.40;;;;;;5107808;28;20266;-87
2023/11/08 08:42:50;;;;;;;3.83;1.30;;;8.80;65.40;;;;;;5115010;27;20200;-87
2023/11/08 08:45:18;;;;;;;7.30;1.35;;;8.80;64.40;;;;;;5115896;27;20210;-86
2023/11/08 08:47:45;;;;;;;4.18;1.52;;;8.80;67.60;;;;;;5128649;27;20222;-86
2023/11/08 08:50:12;;;;;;;5.10;1.30;;;8.80;65.60;;;;;;5126266;27;20207;-86
2023/11/08 08:52:40;;;;;;;5.75;1.40;;;8.90;68.80;;;;;;5138009;27;20216;-86
2023/11/08 08:55:08;;;;;;;1.92;1.00;;;9.20;65.60;;;;;;5124300;27;20275;-87
2023/11/08 08:57:36;;;;;;;2.20;1.20;;;9.40;61.80;;;;;;5121684;27;20217;-87
2023/11/08 09:00:03;;;;;;;5.05;1.33;;;9.60;57.00;;;;;;5118937;27;20294;-86
2023/11/08 09:02:31;;;;;;;3.28;1.25;;;9.70;56.90;;;;;;5107766;28;20201;-87
2023/11/08 09:04:58;;;;;;;2.38;1.10;;;10.20;53.80;;;;;;5118534;27;20206;-87
2023/11/08 09:07:25;;;;;;;3.72;1.20;;;11.00;46.60;;;;;;5118973;27;20199;-87
2023/11/08 09:09:52;;;;;;;2.63;1.20;;;12.00;36.40;;;;;;5115578;27;20206;-87
2023/11/08 09:12:20;;;;;;;2.08;1.10;;;12.40;33.50;;;;;;5108692;27;20200;-87
2023/11/08 09:14:52;;;;;;;2.45;0.93;;;12.40;30.20;;;;;;5112641;28;20319;-87
2023/11/08 09:17:19;;;;;;;2.40;1.20;;;12.20;30.30;;;;;;5115175;27;20211;-87
2023/11/08 09:19:48;;;;;;;3.80;1.00;;;11.70;31.40;;;;;;5115331;27;20192;-87
2023/11/08 09:22:15;;;;;;;2.42;1.38;;;11.40;34.10;;;;;;5107079;27;20221;-87
2023/11/08 09:24:42;;;;;;;1.95;1.00;;;11.30;36.40;;;;;;5109568;27;20228;-86
2023/11/08 09:27:09;;;;;;;2.33;1.30;;;11.40;31.90;;;;;;5104059;27;20280;-87
2023/11/08 09:29:37;;;;;;;1.75;1.15;;;11.60;33.40;;;;;;5099798;28;20242;-88
2023/11/08 09:32:05;;;;;;;3.20;1.23;;;12.10;30.60;;;;;;5103278;27;20203;-87
2023/11/08 09:34:32;;;;;;;3.17;1.20;;;12.40;28.30;;;;;;5110556;27;20298;-87
2023/11/08 09:37:00;;;;;;;2.10;1.15;;;12.20;28.10;;;;;;5111774;27;20793;-87
2023/11/08 09:39:28;;;;;;;3.30;1.13;;;12.10;27.40;;;;;;5109781;27;20931;-87
2023/11/08 09:41:57;;;;;;;7.10;1.27;;;11.90;29.60;;;;;;5111691;28;20633;-86
2023/11/08 09:44:25;;;;;;;7.47;3.55;;;11.60;28.10;;;;;;5110866;27;20197;-87
2023/11/08 09:46:56;;;;;;;2.45;1.20;;;11.30;30.10;;;;;;5111882;27;20208;-87
2023/11/08 09:49:24;;;;;;;3.58;1.52;;;11.20;33.80;;;;;;5107106;27;20677;-86
2023/11/08 09:51:52;;;;;;;2.20;1.30;;;11.30;32.20;;;;;;5113393;27;20928;-87
2023/11/08 09:54:21;;;;;;;3.33;2.30;;;11.40;30.00;;;;;;5113185;27;20258;-87
2023/11/08 09:56:48;;;;;;;2.25;1.17;;;11.40;30.20;;;;;;5117719;27;20192;-86
2023/11/08 09:59:16;;;;;;;2.75;1.00;;;11.30;30.00;;;;;;5115604;27;20199;-87
2023/11/08 10:01:45;;;;;;;4.18;1.27;;;11.10;34.80;;;;;;5109346;27;20196;-87
2023/11/08 10:04:15;;;;;;;3.38;1.42;;;11.10;35.80;;;;;;5104771;28;20802;-87
2023/11/08 10:06:42;;;;;;;3.85;1.20;;;11.20;32.30;;;;;;5110814;28;20552;-85
2023/11/08 10:09:11;;;;;;;4.50;3.15;;;11.20;36.10;;;;;;5123350;27;20201;-87
2023/11/08 10:11:40;;;;;;;4.55;1.30;;;11.30;33.20;;;;;;5100271;28;20265;-87
2023/11/08 10:14:08;;;;;;;4.90;1.30;;;11.30;31.20;;;;;;5105945;27;20216;-86
2023/11/08 10:16:45;;;;;;;2.55;1.30;;;11.20;33.50;;;;;;5111585;27;20203;-87
2023/11/08 10:19:13;;;;;;;4.15;1.20;;;11.30;30.90;;;;;;5119926;27;20203;-87
2023/11/08 10:21:47;;;;;;;1.55;1.15;;;11.20;33.70;;;;;;5114861;27;20200;-87
2023/11/08 10:24:16;;;;;;;1.55;1.00;;;11.20;33.60;;;;;;5110798;27;20244;-87
2023/11/08 10:26:46;;;;;;;3.15;1.30;;;11.40;32.70;;;;;;5104644;28;20200;-87
2023/11/08 10:29:13;;;;;;;4.32;1.27;;;11.90;27.70;;;;;;5111319;28;20660;-86
2023/11/08 10:31:41;;;;;;;2.08;1.00;;;12.20;28.70;;;;;;5112085;27;20192;-87
2023/11/08 10:34:11;;;;;;;3.22;1.23;;;12.70;27.40;;;;;;5115507;27;20747;-87
2023/11/08 10:36:38;;;;;;;2.97;1.10;;;13.30;24.10;;;;;;5119094;27;20670;-86
2023/11/08 10:39:07;;;;;;;2.60;1.23;;;14.20;19.90;;;;;;5113493;27;20207;-86
2023/11/08 10:41:36;;;;;;;4.75;1.33;;;14.70;17.60;;;;;;5112622;27;20196;-87
2023/11/08 10:44:11;;;;;;;3.75;1.30;;;14.40;19.20;;;;;;5112930;28;20286;-86
2023/11/08 10:46:41;;;;;;;3.13;1.38;;;14.20;20.00;;;;;;5122912;27;20191;-87
2023/11/08 10:49:10;;;;;;;2.78;1.30;;;13.80;19.80;;;;;;5111458;28;20195;-87
2023/11/08 10:51:40;;;;;;;1.85;1.13;;;13.70;20.70;;;;;;5103223;28;20303;-88
2023/11/08 10:54:08;;;;;;;2.40;1.20;;;13.60;20.90;;;;;;5111939;28;20203;-87
2023/11/08 10:56:37;;;;;;;4.45;1.45;;;13.20;20.80;;;;;;5114502;28;20604;-86
2023/11/08 10:59:07;;;;;;;5.90;2.08;;;12.80;22.60;;;;;;5113320;28;20218;-85
2023/11/08 11:01:39;;;;;;;3.85;2.63;;;12.50;23.20;;;;;;5116176;28;20645;-88
2023/11/08 11:04:09;;;;;;;3.15;1.60;;;12.40;25.70;;;;;;5113597;27;20214;-86
2023/11/08 11:06:36;;;;;;;4.57;1.20;;;12.30;25.60;;;;;;5116946;28;20245;-87
2023/11/08 11:09:10;;;;;;;1.88;1.00;;;12.20;25.50;;;;;;5111197;28;20208;-86
2023/11/08 11:11:40;;;;;;;3.03;1.30;;;12.30;25.60;;;;;;5101738;28;20560;-87
2023/11/08 11:14:15;;;;;;;3.17;1.17;;;12.40;25.70;;;;;;5115130;28;20287;-87
2023/11/08 11:16:53;;;;;;;5.13;1.20;;;12.50;25.70;;;;;;5088089;28;20248;-87
2023/11/08 11:19:24;;;;;;;3.58;1.40;;;12.50;25.80;;;;;;5109150;28;20247;-87
2023/11/08 11:21:54;;;;;;;4.03;1.10;;;12.50;25.80;;;;;;5111072;28;20614;-87
2023/11/08 11:24:40;;;;;;;2.08;1.15;;;12.50;25.70;;;;;;5118500;28;20211;-87
2023/11/08 11:27:09;;;;;;;1.20;1.10;;;12.50;25.10;;;;;;5108278;28;20249;-86
2023/11/08 11:29:37;;;;;;;2.13;1.20;;;12.50;23.70;;;;;;5108576;28;20245;-87
2023/11/08 11:32:34;;;;;;;3.15;1.38;;;12.30;25.60;;;;;;5104927;28;20207;-86
2023/11/08 11:35:02;;;;;;;2.22;1.33;;;12.20;25.50;;;;;;5113525;27;20264;-87
2023/11/08 11:37:29;;;;;;;3.75;1.30;;;12.20;25.50;;;;;;5111383;27;20200;-86
2023/11/08 11:40:14;;;;;;;3.10;1.13;;;12.40;24.80;;;;;;5103639;27;20649;-86
2023/11/08 11:42:43;;;;;;;8.45;1.40;;;12.40;25.70;;;;;;5116744;27;20225;-87
2023/11/08 11:45:10;;;;;;;2.17;1.00;;;12.50;25.70;;;;;;5118597;27;20656;-87
2023/11/08 11:47:41;;;;;;;2.47;1.42;;;12.70;24.90;;;;;;5113600;27;20195;-87
2023/11/08 11:50:10;;;;;;;2.90;1.20;;;12.90;23.80;;;;;;5115406;27;20206;-86
2023/11/08 11:52:38;;;;;;;3.95;1.15;;;13.10;22.70;;;;;;5116159;27;20207;-87
2023/11/08 11:55:09;;;;;;;2.13;1.42;;;13.20;21.70;;;;;;5113055;27;20306;-87
2023/11/08 11:57:37;;;;;;;2.28;1.15;;;13.20;20.50;;;;;;5123631;27;20192;-87
2023/11/08 12:00:06;;;;;;;2.97;1.23;;;13.20;21.90;;;;;;5123868;27;20239;-85
2023/11/08 12:02:33;;;;;;;2.85;1.17;;;13.20;20.80;;;;;;5135479;27;20235;-86
2023/11/08 12:05:03;;;;;;;7.68;1.98;;;13.10;21.70;;;;;;5131495;28;20208;-86
2023/11/08 12:07:30;;;;;;;3.33;1.10;;;13.10;22.20;;;;;;5128110;27;20200;-87
2023/11/08 12:10:01;;;;;;;1.92;1.15;;;12.90;21.20;;;;;;5122124;27;20667;-86
2023/11/08 12:12:31;;;;;;;2.25;1.10;;;12.50;21.90;;;;;;5119652;27;20193;-87
2023/11/08 12:15:12;;;;;;;4.03;1.50;;;12.40;25.60;;;;;;5113395;27;20598;-87
2023/11/08 12:17:39;;;;;;;2.15;1.05;;;12.20;24.50;;;;;;5107753;27;20193;-86
2023/11/08 12:20:11;;;;;;;2.33;1.27;;;11.90;25.20;;;;;;5113851;27;20188;-86
2023/11/08 12:22:38;;;;;;;1.92;1.00;;;11.70;25.10;;;;;;5117189;27;20275;-87
2023/11/08 12:25:06;;;;;;;4.20;1.20;;;11.70;25.10;;;;;;5115291;27;20199;-87
2023/11/08 12:27:34;;;;;;;2.22;1.15;;;11.60;25.00;;;;;;5120430;27;20191;-86
2023/11/08 12:30:00;;;;;;;2.13;1.25;;;11.50;25.90;;;;;;5104411;27;20204;-86
2023/11/08 12:32:27;;;;;;;1.70;1.27;;;11.40;27.20;;;;;;5111310;27;20195;-85
2023/11/08 12:34:56;;;;;;;2.20;1.33;;;11.30;26.40;;;;;;5112792;27;20698;-86
2023/11/08 12:37:24;;;;;;;2.28;1.40;;;11.10;28.10;;;;;;5108595;27;20200;-86
2023/11/08 12:39:51;;;;;;;4.15;1.20;;;11.00;28.30;;;;;;5112601;27;20219;-87
2023/11/08 12:42:18;;;;;;;3.15;1.52;;;11.10;26.80;;;;;;5114678;27;20192;-86
2023/11/08 12:44:47;;;;;;;2.05;1.30;;;11.10;28.30;;;;;;5109878;27;20956;-86
2023/11/08 12:47:15;;;;;;;3.90;1.48;;;11.10;28.40;;;;;;5110527;27;21815;-86
2023/11/08 12:49:43;;;;;;;2.90;1.40;;;11.00;29.60;;;;;;5112291;27;20238;-85
2023/11/08 12:52:10;;;;;;;4.68;1.70;;;11.00;29.60;;;;;;5111452;27;20765;-85
2023/11/08 12:54:39;;;;;;;2.45;1.17;;;11.00;28.40;;;;;;5109397;27;20204;-86
2023/11/08 12:57:06;;;;;;;3.50;1.30;;;11.10;29.50;;;;;;5108544;28;20196;-86